sensor_id;sensor_type;location;lat;lon;timestamp;temperature;humidity
62464;SHT31;48512;48.552;9.380;2024-03-17T00:00:24;8.25;89.19
62464;SHT31;48512;48.552;9.380;2024-03-17T00:02:50;8.26;89.19
62464;SHT31;48512;48.552;9.380;2024-03-17T00:05:16;8.25;89.05
62464;SHT31;48512;48.552;9.380;2024-03-17T00:07:44;8.17;89.23
62464;SHT31;48512;48.552;9.380;2024-03-17T00:10:10;8.13;89.35
62464;SHT31;48512;48.552;9.380;2024-03-17T00:12:37;8.13;89.48
62464;SHT31;48512;48.552;9.380;2024-03-17T00:15:06;8.19;89.44
62464;SHT31;48512;48.552;9.380;2024-03-17T00:17:33;8.25;89.23
62464;SHT31;48512;48.552;9.380;2024-03-17T00:20:01;8.28;89.07
62464;SHT31;48512;48.552;9.380;2024-03-17T00:22:35;8.26;88.80
62464;SHT31;48512;48.552;9.380;2024-03-17T00:25:07;8.19;89.00
62464;SHT31;48512;48.552;9.380;2024-03-17T00:27:33;8.10;88.98
62464;SHT31;48512;48.552;9.380;2024-03-17T00:30:01;8.02;89.19
62464;SHT31;48512;48.552;9.380;2024-03-17T00:32:28;7.92;89.31
62464;SHT31;48512;48.552;9.380;2024-03-17T00:34:55;7.91;89.28
62464;SHT31;48512;48.552;9.380;2024-03-17T00:37:21;7.84;89.27
62464;SHT31;48512;48.552;9.380;2024-03-17T00:39:47;7.78;89.31
62464;SHT31;48512;48.552;9.380;2024-03-17T00:42:13;7.84;89.18
62464;SHT31;48512;48.552;9.380;2024-03-17T00:44:40;7.81;89.03
62464;SHT31;48512;48.552;9.380;2024-03-17T00:47:07;7.79;89.06
62464;SHT31;48512;48.552;9.380;2024-03-17T00:49:34;7.81;89.07
62464;SHT31;48512;48.552;9.380;2024-03-17T00:52:00;7.71;89.12
62464;SHT31;48512;48.552;9.380;2024-03-17T00:54:26;7.73;88.97
62464;SHT31;48512;48.552;9.380;2024-03-17T00:56:52;7.66;89.08
62464;SHT31;48512;48.552;9.380;2024-03-17T00:59:18;7.51;89.13
62464;SHT31;48512;48.552;9.380;2024-03-17T01:01:44;7.37;89.49
62464;SHT31;48512;48.552;9.380;2024-03-17T01:04:10;7.24;89.60
62464;SHT31;48512;48.552;9.380;2024-03-17T01:06:36;7.08;89.99
62464;SHT31;48512;48.552;9.380;2024-03-17T01:09:07;7.06;90.04
62464;SHT31;48512;48.552;9.380;2024-03-17T01:11:34;6.89;90.05
62464;SHT31;48512;48.552;9.380;2024-03-17T01:14:00;6.81;90.11
62464;SHT31;48512;48.552;9.380;2024-03-17T01:16:26;6.75;90.24
62464;SHT31;48512;48.552;9.380;2024-03-17T01:18:53;6.78;90.24
62464;SHT31;48512;48.552;9.380;2024-03-17T01:21:20;6.72;90.32
62464;SHT31;48512;48.552;9.380;2024-03-17T01:23:48;6.75;90.39
62464;SHT31;48512;48.552;9.380;2024-03-17T01:26:14;6.74;90.38
62464;SHT31;48512;48.552;9.380;2024-03-17T01:28:40;6.75;90.44
62464;SHT31;48512;48.552;9.380;2024-03-17T01:31:07;6.77;90.70
62464;SHT31;48512;48.552;9.380;2024-03-17T01:33:33;6.70;90.76
62464;SHT31;48512;48.552;9.380;2024-03-17T01:35:59;6.67;90.87
62464;SHT31;48512;48.552;9.380;2024-03-17T01:38:25;6.68;91.01
62464;SHT31;48512;48.552;9.380;2024-03-17T01:40:51;6.68;91.20
62464;SHT31;48512;48.552;9.380;2024-03-17T01:43:17;6.65;91.37
62464;SHT31;48512;48.552;9.380;2024-03-17T01:45:44;6.61;91.44
62464;SHT31;48512;48.552;9.380;2024-03-17T01:48:14;6.60;91.43
62464;SHT31;48512;48.552;9.380;2024-03-17T01:50:42;6.58;91.57
62464;SHT31;48512;48.552;9.380;2024-03-17T01:53:11;6.54;91.74
62464;SHT31;48512;48.552;9.380;2024-03-17T01:55:41;6.54;91.92
62464;SHT31;48512;48.552;9.380;2024-03-17T01:58:08;6.58;91.87
62464;SHT31;48512;48.552;9.380;2024-03-17T02:00:36;6.60;91.89
62464;SHT31;48512;48.552;9.380;2024-03-17T02:03:07;6.67;92.14
62464;SHT31;48512;48.552;9.380;2024-03-17T02:05:38;6.63;91.83
62464;SHT31;48512;48.552;9.380;2024-03-17T02:08:05;6.60;91.95
62464;SHT31;48512;48.552;9.380;2024-03-17T02:10:33;6.60;92.12
62464;SHT31;48512;48.552;9.380;2024-03-17T02:13:00;6.57;92.12
62464;SHT31;48512;48.552;9.380;2024-03-17T02:15:27;6.68;92.04
62464;SHT31;48512;48.552;9.380;2024-03-17T02:17:53;6.77;92.18
62464;SHT31;48512;48.552;9.380;2024-03-17T02:20:19;6.75;92.12
62464;SHT31;48512;48.552;9.380;2024-03-17T02:22:48;6.77;92.02
62464;SHT31;48512;48.552;9.380;2024-03-17T02:25:14;6.82;92.02
62464;SHT31;48512;48.552;9.380;2024-03-17T02:27:40;6.87;91.78
62464;SHT31;48512;48.552;9.380;2024-03-17T02:30:06;6.89;91.74
62464;SHT31;48512;48.552;9.380;2024-03-17T02:32:35;6.82;91.86
62464;SHT31;48512;48.552;9.380;2024-03-17T02:35:02;6.79;92.12
62464;SHT31;48512;48.552;9.380;2024-03-17T02:37:28;6.78;92.21
62464;SHT31;48512;48.552;9.380;2024-03-17T02:39:54;6.75;92.35
62464;SHT31;48512;48.552;9.380;2024-03-17T02:42:20;6.77;92.45
62464;SHT31;48512;48.552;9.380;2024-03-17T02:44:47;6.81;92.63
62464;SHT31;48512;48.552;9.380;2024-03-17T02:47:13;6.87;92.49
62464;SHT31;48512;48.552;9.380;2024-03-17T02:49:40;6.88;92.34
62464;SHT31;48512;48.552;9.380;2024-03-17T02:52:10;6.95;92.15
62464;SHT31;48512;48.552;9.380;2024-03-17T02:54:36;7.02;92.19
62464;SHT31;48512;48.552;9.380;2024-03-17T02:57:04;7.06;91.87
62464;SHT31;48512;48.552;9.380;2024-03-17T02:59:30;7.08;91.97
62464;SHT31;48512;48.552;9.380;2024-03-17T03:01:58;7.08;91.94
62464;SHT31;48512;48.552;9.380;2024-03-17T03:04:25;7.12;91.89
62464;SHT31;48512;48.552;9.380;2024-03-17T03:06:51;7.15;91.92
62464;SHT31;48512;48.552;9.380;2024-03-17T03:09:17;7.19;91.89
62464;SHT31;48512;48.552;9.380;2024-03-17T03:11:52;7.19;91.84
62464;SHT31;48512;48.552;9.380;2024-03-17T03:14:19;7.22;91.83
62464;SHT31;48512;48.552;9.380;2024-03-17T03:16:45;7.24;91.83
62464;SHT31;48512;48.552;9.380;2024-03-17T03:19:11;7.27;91.80
62464;SHT31;48512;48.552;9.380;2024-03-17T03:21:37;7.31;91.86
62464;SHT31;48512;48.552;9.380;2024-03-17T03:24:03;7.34;91.79
62464;SHT31;48512;48.552;9.380;2024-03-17T03:26:30;7.39;91.90
62464;SHT31;48512;48.552;9.380;2024-03-17T03:28:56;7.39;91.79
62464;SHT31;48512;48.552;9.380;2024-03-17T03:31:22;7.43;91.85
62464;SHT31;48512;48.552;9.380;2024-03-17T03:33:48;7.42;91.99
62464;SHT31;48512;48.552;9.380;2024-03-17T03:36:15;7.44;91.80
62464;SHT31;48512;48.552;9.380;2024-03-17T03:38:42;7.48;91.62
62464;SHT31;48512;48.552;9.380;2024-03-17T03:41:15;7.48;91.61
62464;SHT31;48512;48.552;9.380;2024-03-17T03:43:42;7.50;91.48
62464;SHT31;48512;48.552;9.380;2024-03-17T03:46:09;7.50;91.42
62464;SHT31;48512;48.552;9.380;2024-03-17T03:48:35;7.54;91.36
62464;SHT31;48512;48.552;9.380;2024-03-17T03:51:08;7.53;91.39
62464;SHT31;48512;48.552;9.380;2024-03-17T03:53:36;7.51;91.33
62464;SHT31;48512;48.552;9.380;2024-03-17T03:56:05;7.54;91.37
62464;SHT31;48512;48.552;9.380;2024-03-17T03:58:37;7.50;91.41
62464;SHT31;48512;48.552;9.380;2024-03-17T04:01:07;7.51;91.38
62464;SHT31;48512;48.552;9.380;2024-03-17T04:03:35;7.51;91.30
62464;SHT31;48512;48.552;9.380;2024-03-17T04:06:05;7.48;91.30
62464;SHT31;48512;48.552;9.380;2024-03-17T04:08:38;7.51;91.49
62464;SHT31;48512;48.552;9.380;2024-03-17T04:11:07;7.47;91.74
62464;SHT31;48512;48.552;9.380;2024-03-17T04:13:34;7.47;91.74
62464;SHT31;48512;48.552;9.380;2024-03-17T04:16:01;7.51;91.68
62464;SHT31;48512;48.552;9.380;2024-03-17T04:18:30;7.50;91.67
62464;SHT31;48512;48.552;9.380;2024-03-17T04:20:57;7.50;91.93
62464;SHT31;48512;48.552;9.380;2024-03-17T04:23:23;7.51;91.93
62464;SHT31;48512;48.552;9.380;2024-03-17T04:25:51;7.50;91.97
62464;SHT31;48512;48.552;9.380;2024-03-17T04:28:17;7.46;91.98
62464;SHT31;48512;48.552;9.380;2024-03-17T04:30:43;7.42;92.36
62464;SHT31;48512;48.552;9.380;2024-03-17T04:33:10;7.39;92.61
62464;SHT31;48512;48.552;9.380;2024-03-17T04:35:38;7.36;92.84
62464;SHT31;48512;48.552;9.380;2024-03-17T04:38:04;7.34;92.81
62464;SHT31;48512;48.552;9.380;2024-03-17T04:40:34;7.36;92.76
62464;SHT31;48512;48.552;9.380;2024-03-17T04:43:01;7.39;92.79
62464;SHT31;48512;48.552;9.380;2024-03-17T04:45:27;7.40;92.66
62464;SHT31;48512;48.552;9.380;2024-03-17T04:47:53;7.39;92.66
62464;SHT31;48512;48.552;9.380;2024-03-17T04:50:19;7.46;92.64
62464;SHT31;48512;48.552;9.380;2024-03-17T04:52:47;7.46;92.53
62464;SHT31;48512;48.552;9.380;2024-03-17T04:55:13;7.50;92.40
62464;SHT31;48512;48.552;9.380;2024-03-17T04:57:39;7.53;92.27
62464;SHT31;48512;48.552;9.380;2024-03-17T05:00:06;7.56;92.21
62464;SHT31;48512;48.552;9.380;2024-03-17T05:02:38;7.56;92.19
62464;SHT31;48512;48.552;9.380;2024-03-17T05:05:05;7.60;92.21
62464;SHT31;48512;48.552;9.380;2024-03-17T05:07:33;7.56;92.21
62464;SHT31;48512;48.552;9.380;2024-03-17T05:09:59;7.57;92.08
62464;SHT31;48512;48.552;9.380;2024-03-17T05:12:25;7.58;92.01
62464;SHT31;48512;48.552;9.380;2024-03-17T05:14:51;7.61;91.90
62464;SHT31;48512;48.552;9.380;2024-03-17T05:17:17;7.61;91.83
62464;SHT31;48512;48.552;9.380;2024-03-17T05:19:43;7.67;91.71
62464;SHT31;48512;48.552;9.380;2024-03-17T05:22:09;7.66;91.63
62464;SHT31;48512;48.552;9.380;2024-03-17T05:24:36;7.57;91.83
62464;SHT31;48512;48.552;9.380;2024-03-17T05:27:02;7.50;92.15
62464;SHT31;48512;48.552;9.380;2024-03-17T05:29:29;7.43;92.47
62464;SHT31;48512;48.552;9.380;2024-03-17T05:31:55;7.39;92.75
62464;SHT31;48512;48.552;9.380;2024-03-17T05:34:22;7.39;92.95
62464;SHT31;48512;48.552;9.380;2024-03-17T05:36:50;7.39;92.98
62464;SHT31;48512;48.552;9.380;2024-03-17T05:39:16;7.44;92.92
62464;SHT31;48512;48.552;9.380;2024-03-17T05:41:43;7.47;92.77
62464;SHT31;48512;48.552;9.380;2024-03-17T05:44:15;7.53;92.57
62464;SHT31;48512;48.552;9.380;2024-03-17T05:46:41;7.54;92.43
62464;SHT31;48512;48.552;9.380;2024-03-17T05:49:08;7.54;92.34
62464;SHT31;48512;48.552;9.380;2024-03-17T05:51:34;7.47;92.57
62464;SHT31;48512;48.552;9.380;2024-03-17T05:54:00;7.46;92.81
62464;SHT31;48512;48.552;9.380;2024-03-17T05:56:26;7.46;92.84
62464;SHT31;48512;48.552;9.380;2024-03-17T05:58:52;7.46;92.76
62464;SHT31;48512;48.552;9.380;2024-03-17T06:01:18;7.50;92.69
62464;SHT31;48512;48.552;9.380;2024-03-17T06:03:45;7.54;92.60
62464;SHT31;48512;48.552;9.380;2024-03-17T06:06:12;7.58;92.55
62464;SHT31;48512;48.552;9.380;2024-03-17T06:08:38;7.67;92.51
62464;SHT31;48512;48.552;9.380;2024-03-17T06:11:07;7.71;92.58
62464;SHT31;48512;48.552;9.380;2024-03-17T06:13:34;7.74;92.39
62464;SHT31;48512;48.552;9.380;2024-03-17T06:16:03;7.78;92.16
62464;SHT31;48512;48.552;9.380;2024-03-17T06:18:31;7.82;91.99
62464;SHT31;48512;48.552;9.380;2024-03-17T06:20:57;7.89;91.83
62464;SHT31;48512;48.552;9.380;2024-03-17T06:23:24;7.92;91.70
62464;SHT31;48512;48.552;9.380;2024-03-17T06:25:53;7.95;91.77
62464;SHT31;48512;48.552;9.380;2024-03-17T06:28:21;7.99;91.63
62464;SHT31;48512;48.552;9.380;2024-03-17T06:30:57;8.01;91.47
62464;SHT31;48512;48.552;9.380;2024-03-17T06:33:28;8.05;91.48
62464;SHT31;48512;48.552;9.380;2024-03-17T06:35:54;8.09;91.41
62464;SHT31;48512;48.552;9.380;2024-03-17T06:38:21;8.12;91.29
62464;SHT31;48512;48.552;9.380;2024-03-17T06:40:48;8.17;91.19
62464;SHT31;48512;48.552;9.380;2024-03-17T06:43:15;8.22;90.95
62464;SHT31;48512;48.552;9.380;2024-03-17T06:45:42;8.28;90.77
62464;SHT31;48512;48.552;9.380;2024-03-17T06:48:08;8.33;90.65
62464;SHT31;48512;48.552;9.380;2024-03-17T06:50:34;8.34;90.65
62464;SHT31;48512;48.552;9.380;2024-03-17T06:53:00;8.37;90.77
62464;SHT31;48512;48.552;9.380;2024-03-17T06:55:26;8.30;90.87
62464;SHT31;48512;48.552;9.380;2024-03-17T06:57:54;8.28;91.08
62464;SHT31;48512;48.552;9.380;2024-03-17T07:00:20;8.30;91.46
62464;SHT31;48512;48.552;9.380;2024-03-17T07:02:51;8.29;91.25
62464;SHT31;48512;48.552;9.380;2024-03-17T07:05:17;8.32;91.18
62464;SHT31;48512;48.552;9.380;2024-03-17T07:07:44;8.36;91.17
62464;SHT31;48512;48.552;9.380;2024-03-17T07:10:11;8.43;91.11
62464;SHT31;48512;48.552;9.380;2024-03-17T07:12:38;8.53;90.78
62464;SHT31;48512;48.552;9.380;2024-03-17T07:15:05;8.57;90.03
62464;SHT31;48512;48.552;9.380;2024-03-17T07:17:32;8.63;89.87
62464;SHT31;48512;48.552;9.380;2024-03-17T07:19:58;8.70;89.83
62464;SHT31;48512;48.552;9.380;2024-03-17T07:22:24;8.78;89.81
62464;SHT31;48512;48.552;9.380;2024-03-17T07:24:52;8.85;89.84
62464;SHT31;48512;48.552;9.380;2024-03-17T07:27:22;8.91;89.80
62464;SHT31;48512;48.552;9.380;2024-03-17T07:29:48;8.99;89.61
62464;SHT31;48512;48.552;9.380;2024-03-17T07:32:15;9.09;89.38
62464;SHT31;48512;48.552;9.380;2024-03-17T07:34:41;9.14;89.20
62464;SHT31;48512;48.552;9.380;2024-03-17T07:37:07;9.25;88.96
62464;SHT31;48512;48.552;9.380;2024-03-17T07:39:33;9.36;88.59
62464;SHT31;48512;48.552;9.380;2024-03-17T07:42:00;9.47;88.23
62464;SHT31;48512;48.552;9.380;2024-03-17T07:44:30;9.54;87.99
62464;SHT31;48512;48.552;9.380;2024-03-17T07:47:03;9.63;87.87
62464;SHT31;48512;48.552;9.380;2024-03-17T07:49:30;9.71;87.82
62464;SHT31;48512;48.552;9.380;2024-03-17T07:51:57;9.80;87.66
62464;SHT31;48512;48.552;9.380;2024-03-17T07:54:24;9.95;87.47
62464;SHT31;48512;48.552;9.380;2024-03-17T07:56:50;10.08;87.13
62464;SHT31;48512;48.552;9.380;2024-03-17T07:59:17;10.18;86.93
62464;SHT31;48512;48.552;9.380;2024-03-17T08:01:44;10.21;87.12
62464;SHT31;48512;48.552;9.380;2024-03-17T08:04:11;10.29;87.06
62464;SHT31;48512;48.552;9.380;2024-03-17T08:06:39;10.36;86.73
62464;SHT31;48512;48.552;9.380;2024-03-17T08:09:07;10.48;86.50
62464;SHT31;48512;48.552;9.380;2024-03-17T08:11:35;10.52;86.69
62464;SHT31;48512;48.552;9.380;2024-03-17T08:14:01;10.59;86.76
62464;SHT31;48512;48.552;9.380;2024-03-17T08:16:27;10.67;86.72
62464;SHT31;48512;48.552;9.380;2024-03-17T08:18:56;10.79;86.26
62464;SHT31;48512;48.552;9.380;2024-03-17T08:21:22;10.84;85.94
62464;SHT31;48512;48.552;9.380;2024-03-17T08:23:48;10.96;85.60
62464;SHT31;48512;48.552;9.380;2024-03-17T08:26:14;11.03;85.68
62464;SHT31;48512;48.552;9.380;2024-03-17T08:28:40;11.10;85.49
62464;SHT31;48512;48.552;9.380;2024-03-17T08:31:07;11.14;85.40
62464;SHT31;48512;48.552;9.380;2024-03-17T08:33:36;11.45;87.22
62464;SHT31;48512;48.552;9.380;2024-03-17T08:36:06;11.94;88.09
62464;SHT31;48512;48.552;9.380;2024-03-17T08:38:36;12.38;82.10
62464;SHT31;48512;48.552;9.380;2024-03-17T08:43:33;12.24;80.32
62464;SHT31;48512;48.552;9.380;2024-03-17T08:46:08;12.11;79.78
62464;SHT31;48512;48.552;9.380;2024-03-17T08:48:36;12.10;80.05
62464;SHT31;48512;48.552;9.380;2024-03-17T08:51:04;12.10;79.83
62464;SHT31;48512;48.552;9.380;2024-03-17T08:53:31;12.21;79.87
62464;SHT31;48512;48.552;9.380;2024-03-17T08:55:57;12.25;80.19
62464;SHT31;48512;48.552;9.380;2024-03-17T08:58:25;12.35;80.42
62464;SHT31;48512;48.552;9.380;2024-03-17T09:00:51;12.44;79.98
62464;SHT31;48512;48.552;9.380;2024-03-17T09:03:18;12.44;79.97
62464;SHT31;48512;48.552;9.380;2024-03-17T09:05:46;12.52;79.49
62464;SHT31;48512;48.552;9.380;2024-03-17T09:08:22;12.68;79.49
62464;SHT31;48512;48.552;9.380;2024-03-17T09:10:49;12.79;79.68
62464;SHT31;48512;48.552;9.380;2024-03-17T09:15:55;12.83;78.95
62464;SHT31;48512;48.552;9.380;2024-03-17T09:18:41;12.83;79.65
62464;SHT31;48512;48.552;9.380;2024-03-17T09:21:08;13.30;83.07
62464;SHT31;48512;48.552;9.380;2024-03-17T09:23:34;13.87;81.06
62464;SHT31;48512;48.552;9.380;2024-03-17T09:26:05;14.42;79.64
62464;SHT31;48512;48.552;9.380;2024-03-17T09:28:35;14.81;75.97
62464;SHT31;48512;48.552;9.380;2024-03-17T09:31:01;15.08;75.34
62464;SHT31;48512;48.552;9.380;2024-03-17T09:33:29;15.26;73.84
62464;SHT31;48512;48.552;9.380;2024-03-17T09:35:57;14.89;71.94
62464;SHT31;48512;48.552;9.380;2024-03-17T09:38:23;14.41;72.61
62464;SHT31;48512;48.552;9.380;2024-03-17T09:40:50;14.13;73.57
62464;SHT31;48512;48.552;9.380;2024-03-17T09:43:19;13.95;74.30
62464;SHT31;48512;48.552;9.380;2024-03-17T09:45:47;13.89;74.09
62464;SHT31;48512;48.552;9.380;2024-03-17T09:48:17;13.90;74.01
62464;SHT31;48512;48.552;9.380;2024-03-17T09:50:52;13.86;74.03
62464;SHT31;48512;48.552;9.380;2024-03-17T09:56:08;13.90;73.55
62464;SHT31;48512;48.552;9.380;2024-03-17T09:58:35;13.92;73.55
62464;SHT31;48512;48.552;9.380;2024-03-17T10:01:01;13.87;73.83
62464;SHT31;48512;48.552;9.380;2024-03-17T10:06:06;13.95;73.98
62464;SHT31;48512;48.552;9.380;2024-03-17T10:08:32;13.96;73.52
62464;SHT31;48512;48.552;9.380;2024-03-17T10:11:00;14.05;73.35
62464;SHT31;48512;48.552;9.380;2024-03-17T10:13:26;14.10;72.52
62464;SHT31;48512;48.552;9.380;2024-03-17T10:15:52;14.14;72.67
62464;SHT31;48512;48.552;9.380;2024-03-17T10:18:22;14.12;73.72
62464;SHT31;48512;48.552;9.380;2024-03-17T10:20:52;14.19;73.78
62464;SHT31;48512;48.552;9.380;2024-03-17T10:23:25;14.24;72.43
62464;SHT31;48512;48.552;9.380;2024-03-17T10:25:51;14.30;72.94
62464;SHT31;48512;48.552;9.380;2024-03-17T10:28:17;14.31;72.04
62464;SHT31;48512;48.552;9.380;2024-03-17T10:31:00;14.48;71.33
62464;SHT31;48512;48.552;9.380;2024-03-17T10:33:27;14.69;71.63
62464;SHT31;48512;48.552;9.380;2024-03-17T10:36:00;14.92;72.03
62464;SHT31;48512;48.552;9.380;2024-03-17T10:38:28;15.03;69.90
62464;SHT31;48512;48.552;9.380;2024-03-17T10:40:54;15.12;70.52
62464;SHT31;48512;48.552;9.380;2024-03-17T10:43:20;15.19;69.05
62464;SHT31;48512;48.552;9.380;2024-03-17T10:45:52;15.26;70.25
62464;SHT31;48512;48.552;9.380;2024-03-17T10:48:20;15.33;70.19
62464;SHT31;48512;48.552;9.380;2024-03-17T10:50:48;15.39;69.57
62464;SHT31;48512;48.552;9.380;2024-03-17T10:53:19;15.53;68.76
62464;SHT31;48512;48.552;9.380;2024-03-17T10:56:03;15.57;68.73
62464;SHT31;48512;48.552;9.380;2024-03-17T10:58:42;15.70;66.74
62464;SHT31;48512;48.552;9.380;2024-03-17T11:01:14;15.74;68.28
62464;SHT31;48512;48.552;9.380;2024-03-17T11:03:40;16.06;68.66
62464;SHT31;48512;48.552;9.380;2024-03-17T11:06:07;16.12;68.15
62464;SHT31;48512;48.552;9.380;2024-03-17T11:08:34;16.04;67.35
62464;SHT31;48512;48.552;9.380;2024-03-17T11:11:01;16.15;65.82
62464;SHT31;48512;48.552;9.380;2024-03-17T11:13:30;16.25;65.47
62464;SHT31;48512;48.552;9.380;2024-03-17T11:15:58;16.42;64.46
62464;SHT31;48512;48.552;9.380;2024-03-17T11:23:33;16.76;64.34
62464;SHT31;48512;48.552;9.380;2024-03-17T11:26:00;16.80;63.86
62464;SHT31;48512;48.552;9.380;2024-03-17T11:34:02;17.45;69.74
62464;SHT31;48512;48.552;9.380;2024-03-17T11:36:34;17.76;64.42
62464;SHT31;48512;48.552;9.380;2024-03-17T11:39:09;17.52;60.66
62464;SHT31;48512;48.552;9.380;2024-03-17T11:41:44;17.28;61.41
62464;SHT31;48512;48.552;9.380;2024-03-17T11:44:25;17.01;62.78
62464;SHT31;48512;48.552;9.380;2024-03-17T11:49:37;16.73;63.38
62464;SHT31;48512;48.552;9.380;2024-03-17T11:54:38;16.88;62.30
62464;SHT31;48512;48.552;9.380;2024-03-17T11:59:36;17.73;62.33
62464;SHT31;48512;48.552;9.380;2024-03-17T12:04:46;17.91;58.33
62464;SHT31;48512;48.552;9.380;2024-03-17T12:07:14;17.74;57.83
62464;SHT31;48512;48.552;9.380;2024-03-17T12:09:42;17.52;58.09
62464;SHT31;48512;48.552;9.380;2024-03-17T12:12:10;17.73;57.96
62464;SHT31;48512;48.552;9.380;2024-03-17T12:14:38;17.86;58.65
62464;SHT31;48512;48.552;9.380;2024-03-17T12:17:09;18.41;67.06
62464;SHT31;48512;48.552;9.380;2024-03-17T12:19:36;18.89;61.34
62464;SHT31;48512;48.552;9.380;2024-03-17T12:22:04;19.13;62.45
62464;SHT31;48512;48.552;9.380;2024-03-17T12:24:35;18.34;55.04
62464;SHT31;48512;48.552;9.380;2024-03-17T12:27:05;17.90;56.76
62464;SHT31;48512;48.552;9.380;2024-03-17T12:32:20;17.66;58.32
62464;SHT31;48512;48.552;9.380;2024-03-17T12:34:53;17.39;56.97
62464;SHT31;48512;48.552;9.380;2024-03-17T12:37:23;17.22;58.17
62464;SHT31;48512;48.552;9.380;2024-03-17T12:40:03;16.97;57.82
62464;SHT31;48512;48.552;9.380;2024-03-17T12:42:29;16.36;58.15
62464;SHT31;48512;48.552;9.380;2024-03-17T12:44:59;16.52;59.68
62464;SHT31;48512;48.552;9.380;2024-03-17T12:47:29;16.61;60.04
62464;SHT31;48512;48.552;9.380;2024-03-17T12:49:57;16.64;60.77
62464;SHT31;48512;48.552;9.380;2024-03-17T12:52:31;16.49;59.63
62464;SHT31;48512;48.552;9.380;2024-03-17T12:58:10;16.57;59.51
62464;SHT31;48512;48.552;9.380;2024-03-17T13:01:01;16.59;58.92
62464;SHT31;48512;48.552;9.380;2024-03-17T13:03:31;16.59;59.87
62464;SHT31;48512;48.552;9.380;2024-03-17T13:05:59;16.61;59.79
62464;SHT31;48512;48.552;9.380;2024-03-17T13:08:26;16.55;59.28
62464;SHT31;48512;48.552;9.380;2024-03-17T13:10:52;16.52;59.60
62464;SHT31;48512;48.552;9.380;2024-03-17T13:13:18;16.53;59.18
62464;SHT31;48512;48.552;9.380;2024-03-17T13:15:44;16.53;59.33
62464;SHT31;48512;48.552;9.380;2024-03-17T13:18:18;16.46;58.71
62464;SHT31;48512;48.552;9.380;2024-03-17T13:20:45;16.52;59.22
62464;SHT31;48512;48.552;9.380;2024-03-17T13:23:12;16.55;59.87
62464;SHT31;48512;48.552;9.380;2024-03-17T13:25:38;16.66;59.98
62464;SHT31;48512;48.552;9.380;2024-03-17T13:28:05;16.78;59.44
62464;SHT31;48512;48.552;9.380;2024-03-17T13:30:33;16.97;59.14
62464;SHT31;48512;48.552;9.380;2024-03-17T13:33:03;17.10;59.30
62464;SHT31;48512;48.552;9.380;2024-03-17T13:35:35;17.22;58.57
62464;SHT31;48512;48.552;9.380;2024-03-17T13:38:09;17.11;57.68
62464;SHT31;48512;48.552;9.380;2024-03-17T13:40:37;17.01;58.52
62464;SHT31;48512;48.552;9.380;2024-03-17T13:43:04;17.10;58.32
62464;SHT31;48512;48.552;9.380;2024-03-17T13:45:39;17.12;59.24
62464;SHT31;48512;48.552;9.380;2024-03-17T13:48:06;17.18;58.65
62464;SHT31;48512;48.552;9.380;2024-03-17T13:50:37;17.08;59.22
62464;SHT31;48512;48.552;9.380;2024-03-17T13:53:10;17.11;59.48
62464;SHT31;48512;48.552;9.380;2024-03-17T13:55:37;16.95;59.32
62464;SHT31;48512;48.552;9.380;2024-03-17T13:58:04;16.89;59.51
62464;SHT31;48512;48.552;9.380;2024-03-17T14:00:30;16.85;59.42
62464;SHT31;48512;48.552;9.380;2024-03-17T14:03:05;16.89;59.06
62464;SHT31;48512;48.552;9.380;2024-03-17T14:05:31;16.94;59.41
62464;SHT31;48512;48.552;9.380;2024-03-17T14:08:01;17.03;59.11
62464;SHT31;48512;48.552;9.380;2024-03-17T14:10:27;17.11;58.65
62464;SHT31;48512;48.552;9.380;2024-03-17T14:12:53;17.22;58.92
62464;SHT31;48512;48.552;9.380;2024-03-17T14:15:19;17.38;58.20
62464;SHT31;48512;48.552;9.380;2024-03-17T14:17:46;17.56;58.59
62464;SHT31;48512;48.552;9.380;2024-03-17T14:20:14;17.66;58.02
62464;SHT31;48512;48.552;9.380;2024-03-17T14:22:41;17.72;56.34
62464;SHT31;48512;48.552;9.380;2024-03-17T14:25:17;17.86;56.20
62464;SHT31;48512;48.552;9.380;2024-03-17T14:27:44;18.22;56.41
62464;SHT31;48512;48.552;9.380;2024-03-17T14:30:15;18.28;56.62
62464;SHT31;48512;48.552;9.380;2024-03-17T14:32:43;18.34;56.73
62464;SHT31;48512;48.552;9.380;2024-03-17T14:35:18;18.37;54.57
62464;SHT31;48512;48.552;9.380;2024-03-17T14:37:46;18.42;55.50
62464;SHT31;48512;48.552;9.380;2024-03-17T14:40:16;18.24;55.37
62464;SHT31;48512;48.552;9.380;2024-03-17T14:42:50;18.00;55.61
62464;SHT31;48512;48.552;9.380;2024-03-17T14:45:17;17.98;56.89
62464;SHT31;48512;48.552;9.380;2024-03-17T14:47:44;18.04;56.90
62464;SHT31;48512;48.552;9.380;2024-03-17T14:50:11;18.17;55.88
62464;SHT31;48512;48.552;9.380;2024-03-17T14:52:42;18.41;55.62
62464;SHT31;48512;48.552;9.380;2024-03-17T14:55:09;18.62;55.31
62464;SHT31;48512;48.552;9.380;2024-03-17T14:57:39;18.93;54.44
62464;SHT31;48512;48.552;9.380;2024-03-17T15:00:07;18.92;54.49
62464;SHT31;48512;48.552;9.380;2024-03-17T15:02:43;18.87;53.41
62464;SHT31;48512;48.552;9.380;2024-03-17T15:05:10;18.76;54.47
62464;SHT31;48512;48.552;9.380;2024-03-17T15:07:37;18.70;54.22
62464;SHT31;48512;48.552;9.380;2024-03-17T15:10:05;18.46;54.49
62464;SHT31;48512;48.552;9.380;2024-03-17T15:12:31;18.21;55.41
62464;SHT31;48512;48.552;9.380;2024-03-17T15:14:57;18.05;56.12
62464;SHT31;48512;48.552;9.380;2024-03-17T15:17:23;17.94;55.93
62464;SHT31;48512;48.552;9.380;2024-03-17T15:19:50;17.84;56.03
62464;SHT31;48512;48.552;9.380;2024-03-17T15:22:16;17.59;55.45
62464;SHT31;48512;48.552;9.380;2024-03-17T15:24:42;17.36;55.34
62464;SHT31;48512;48.552;9.380;2024-03-17T15:27:08;17.28;55.33
62464;SHT31;48512;48.552;9.380;2024-03-17T15:29:35;17.14;55.62
62464;SHT31;48512;48.552;9.380;2024-03-17T15:32:02;17.11;56.49
62464;SHT31;48512;48.552;9.380;2024-03-17T15:34:30;17.05;56.12
62464;SHT31;48512;48.552;9.380;2024-03-17T15:36:59;17.01;56.91
62464;SHT31;48512;48.552;9.380;2024-03-17T15:39:25;16.91;56.48
62464;SHT31;48512;48.552;9.380;2024-03-17T15:41:51;16.73;56.50
62464;SHT31;48512;48.552;9.380;2024-03-17T15:44:17;16.67;56.80
62464;SHT31;48512;48.552;9.380;2024-03-17T15:46:47;16.59;57.89
62464;SHT31;48512;48.552;9.380;2024-03-17T15:49:14;16.47;57.62
62464;SHT31;48512;48.552;9.380;2024-03-17T15:51:41;16.43;58.28
62464;SHT31;48512;48.552;9.380;2024-03-17T15:54:07;16.29;58.26
62464;SHT31;48512;48.552;9.380;2024-03-17T15:56:33;16.18;57.98
62464;SHT31;48512;48.552;9.380;2024-03-17T15:59:00;16.16;58.70
62464;SHT31;48512;48.552;9.380;2024-03-17T16:01:28;16.09;58.81
62464;SHT31;48512;48.552;9.380;2024-03-17T16:03:54;16.05;58.48
62464;SHT31;48512;48.552;9.380;2024-03-17T16:06:21;16.02;58.35
62464;SHT31;48512;48.552;9.380;2024-03-17T16:08:50;16.02;58.59
62464;SHT31;48512;48.552;9.380;2024-03-17T16:11:23;16.05;59.64
62464;SHT31;48512;48.552;9.380;2024-03-17T16:13:55;15.95;60.55
62464;SHT31;48512;48.552;9.380;2024-03-17T16:16:22;15.88;60.36
62464;SHT31;48512;48.552;9.380;2024-03-17T16:18:51;15.77;60.77